sensor_id;sensor_type;location;lat;lon;timestamp;pressure;altitude;pressure_sealevel;temperature;humidity
13954;BME280;7049;49.444;8.522;2022-11-18T00:03:32;76700.88;;;-3.47;100.00
13954;BME280;7049;49.444;8.522;2022-11-18T00:08:34;76700.88;;;-3.47;100.00
13954;BME280;7049;49.444;8.522;2022-11-18T00:13:36;76705.06;;;-3.47;100.00
13954;BME280;7049;49.444;8.522;2022-11-18T00:18:53;76702.97;;;-3.47;100.00
13954;BME280;7049;49.444;8.522;2022-11-18T00:23:54;76711.34;;;-3.47;100.00
13954;BME280;7049;49.444;8.522;2022-11-18T00:28:56;76702.97;;;-3.47;100.00
13954;BME280;7049;49.444;8.522;2022-11-18T00:33:59;76707.16;;;-3.47;100.00
13954;BME280;7049;49.444;8.522;2022-11-18T00:39:00;76719.69;;;-3.47;100.00
13954;BME280;7049;49.444;8.522;2022-11-18T00:44:02;76725.97;;;-3.47;100.00
13954;BME280;7049;49.444;8.522;2022-11-18T00:49:05;76723.88;;;-3.47;100.00
13954;BME280;7049;49.444;8.522;2022-11-18T00:54:06;76721.78;;;-3.47;100.00
13954;BME280;7049;49.444;8.522;2022-11-18T00:59:08;76719.69;;;-3.47;100.00
13954;BME280;7049;49.444;8.522;2022-11-18T01:04:11;76713.44;;;-3.47;100.00
13954;BME280;7049;49.444;8.522;2022-11-18T01:09:12;76715.50;;;-3.47;100.00
13954;BME280;7049;49.444;8.522;2022-11-18T01:14:14;76719.69;;;-3.47;100.00
13954;BME280;7049;49.444;8.522;2022-11-18T01:19:17;76715.50;;;-3.47;100.00
13954;BME280;7049;49.444;8.522;2022-11-18T01:24:20;76715.50;;;-3.47;100.00
13954;BME280;7049;49.444;8.522;2022-11-18T01:29:21;76723.88;;;-3.47;100.00
13954;BME280;7049;49.444;8.522;2022-11-18T01:34:26;76725.97;;;-3.47;100.00
13954;BME280;7049;49.444;8.522;2022-11-18T01:39:28;76725.97;;;-3.47;100.00
13954;BME280;7049;49.444;8.522;2022-11-18T01:44:55;76721.78;;;-3.47;100.00
13954;BME280;7049;49.444;8.522;2022-11-18T01:49:59;76728.06;;;-3.47;100.00
13954;BME280;7049;49.444;8.522;2022-11-18T01:55:05;76730.16;;;-3.47;100.00
13954;BME280;7049;49.444;8.522;2022-11-18T02:00:09;76725.97;;;-3.47;100.00
13954;BME280;7049;49.444;8.522;2022-11-18T02:05:12;76725.97;;;-3.47;100.00
13954;BME280;7049;49.444;8.522;2022-11-18T02:10:19;76723.88;;;-3.47;100.00
13954;BME280;7049;49.444;8.522;2022-11-18T02:15:27;76734.34;;;-3.47;100.00
13954;BME280;7049;49.444;8.522;2022-11-18T02:20:35;76740.63;;;-3.47;100.00
13954;BME280;7049;49.444;8.522;2022-11-18T02:25:46;76746.91;;;-3.47;100.00
13954;BME280;7049;49.444;8.522;2022-11-18T02:30:59;76742.72;;;-3.47;100.00
13954;BME280;7049;49.444;8.522;2022-11-18T02:36:07;76742.72;;;-3.47;100.00
13954;BME280;7049;49.444;8.522;2022-11-18T02:41:13;76751.06;;;-3.47;100.00
13954;BME280;7049;49.444;8.522;2022-11-18T02:46:19;76753.16;;;-3.47;100.00
13954;BME280;7049;49.444;8.522;2022-11-18T02:51:24;76755.25;;;-3.47;100.00
13954;BME280;7049;49.444;8.522;2022-11-18T02:56:27;76761.53;;;-3.47;100.00
13954;BME280;7049;49.444;8.522;2022-11-18T03:01:33;76761.53;;;-3.47;100.00
13954;BME280;7049;49.444;8.522;2022-11-18T03:06:37;76759.44;;;-3.47;100.00
13954;BME280;7049;49.444;8.522;2022-11-18T03:11:44;76759.44;;;-3.47;100.00
13954;BME280;7049;49.444;8.522;2022-11-18T03:16:57;76769.91;;;-3.47;100.00
13954;BME280;7049;49.444;8.522;2022-11-18T03:22:07;76763.63;;;-3.47;100.00
13954;BME280;7049;49.444;8.522;2022-11-18T03:27:15;76765.72;;;-3.47;100.00
13954;BME280;7049;49.444;8.522;2022-11-18T03:32:23;76765.72;;;-3.47;100.00
13954;BME280;7049;49.444;8.522;2022-11-18T03:37:27;76765.72;;;-3.47;100.00
13954;BME280;7049;49.444;8.522;2022-11-18T03:42:34;76776.19;;;-3.47;100.00
13954;BME280;7049;49.444;8.522;2022-11-18T03:47:40;76776.19;;;-3.47;100.00
13954;BME280;7049;49.444;8.522;2022-11-18T03:52:43;76778.28;;;-3.47;100.00
13954;BME280;7049;49.444;8.522;2022-11-18T03:57:50;76780.38;;;-3.47;100.00
13954;BME280;7049;49.444;8.522;2022-11-18T04:02:55;76782.47;;;-3.47;100.00
13954;BME280;7049;49.444;8.522;2022-11-18T04:07:58;76780.38;;;-3.47;100.00
13954;BME280;7049;49.444;8.522;2022-11-18T04:13:04;76769.91;;;-3.47;100.00
13954;BME280;7049;49.444;8.522;2022-11-18T04:18:09;76772.00;;;-3.47;100.00
13954;BME280;7049;49.444;8.522;2022-11-18T04:23:11;76765.72;;;-3.47;100.00
13954;BME280;7049;49.444;8.522;2022-11-18T04:28:12;76782.47;;;-3.47;100.00
13954;BME280;7049;49.444;8.522;2022-11-18T04:33:15;76782.47;;;-3.47;100.00
13954;BME280;7049;49.444;8.522;2022-11-18T04:38:16;76784.53;;;-3.47;100.00
13954;BME280;7049;49.444;8.522;2022-11-18T04:43:18;76790.81;;;-3.47;100.00
13954;BME280;7049;49.444;8.522;2022-11-18T04:48:21;76801.28;;;-3.47;100.00
13954;BME280;7049;49.444;8.522;2022-11-18T04:53:22;76822.19;;;-3.47;100.00
13954;BME280;7049;49.444;8.522;2022-11-18T04:58:24;76832.66;;;-3.47;100.00
13954;BME280;7049;49.444;8.522;2022-11-18T05:03:26;76845.22;;;-3.47;100.00
13954;BME280;7049;49.444;8.522;2022-11-18T05:08:28;76855.66;;;-3.47;100.00
13954;BME280;7049;49.444;8.522;2022-11-18T05:13:29;76866.13;;;-3.47;100.00
13954;BME280;7049;49.444;8.522;2022-11-18T05:18:32;76872.41;;;-3.47;100.00
13954;BME280;7049;49.444;8.522;2022-11-18T05:23:34;76882.88;;;-3.47;100.00
13954;BME280;7049;49.444;8.522;2022-11-18T05:28:36;76897.50;;;-3.47;100.00
13954;BME280;7049;49.444;8.522;2022-11-18T05:33:40;76901.69;;;-3.47;100.00
13954;BME280;7049;49.444;8.522;2022-11-18T05:38:42;76901.69;;;-3.47;100.00
13954;BME280;7049;49.444;8.522;2022-11-18T05:43:43;76918.44;;;-3.47;100.00
13954;BME280;7049;49.444;8.522;2022-11-18T05:48:46;76922.63;;;-3.47;100.00
13954;BME280;7049;49.444;8.522;2022-11-18T05:53:50;76935.16;;;-3.47;100.00
13954;BME280;7049;49.444;8.522;2022-11-18T05:58:51;76941.44;;;-3.47;100.00
13954;BME280;7049;49.444;8.522;2022-11-18T06:03:55;76954.00;;;-3.47;100.00
13954;BME280;7049;49.444;8.522;2022-11-18T06:09:00;76954.00;;;-3.47;99.85
13954;BME280;7049;49.444;8.522;2022-11-18T06:14:05;76972.81;;;-3.47;99.98
13954;BME280;7049;49.444;8.522;2022-11-18T06:19:09;76985.38;;;-3.47;99.15
13954;BME280;7049;49.444;8.522;2022-11-18T06:24:11;76989.56;;;-3.47;99.65
13954;BME280;7049;49.444;8.522;2022-11-18T06:29:15;77006.28;;;-3.47;99.10
13954;BME280;7049;49.444;8.522;2022-11-18T06:34:20;77016.75;;;-3.47;99.57
13954;BME280;7049;49.444;8.522;2022-11-18T06:39:21;77033.47;;;-3.47;99.82
13954;BME280;7049;49.444;8.522;2022-11-18T06:44:23;77031.41;;;-3.47;99.42
13954;BME280;7049;49.444;8.522;2022-11-18T06:49:26;77046.03;;;-3.47;100.00
13954;BME280;7049;49.444;8.522;2022-11-18T06:54:27;77066.97;;;-3.47;100.00
13954;BME280;7049;49.444;8.522;2022-11-18T06:59:29;77075.31;;;-3.47;100.00
13954;BME280;7049;49.444;8.522;2022-11-18T07:04:32;77083.69;;;-3.47;100.00
13954;BME280;7049;49.444;8.522;2022-11-18T07:09:38;77089.97;;;-3.47;100.00
13954;BME280;7049;49.444;8.522;2022-11-18T07:14:40;77094.16;;;-3.47;100.00
13954;BME280;7049;49.444;8.522;2022-11-18T07:19:42;77098.34;;;-3.47;100.00
13954;BME280;7049;49.444;8.522;2022-11-18T07:24:44;77104.63;;;-3.47;100.00
13954;BME280;7049;49.444;8.522;2022-11-18T07:29:45;77106.72;;;-3.47;100.00
13954;BME280;7049;49.444;8.522;2022-11-18T07:34:48;77104.63;;;-3.47;100.00
13954;BME280;7049;49.444;8.522;2022-11-18T07:39:50;77110.88;;;-3.47;100.00
13954;BME280;7049;49.444;8.522;2022-11-18T07:44:51;77117.16;;;-3.47;100.00
13954;BME280;7049;49.444;8.522;2022-11-18T07:49:56;77127.63;;;-3.47;100.00
13954;BME280;7049;49.444;8.522;2022-11-18T07:54:58;77127.63;;;-3.47;100.00
13954;BME280;7049;49.444;8.522;2022-11-18T07:59:59;77131.81;;;-3.47;100.00
13954;BME280;7049;49.444;8.522;2022-11-18T08:05:03;77146.44;;;-3.47;100.00
13954;BME280;7049;49.444;8.522;2022-11-18T08:10:05;77154.81;;;-3.47;100.00
13954;BME280;7049;49.444;8.522;2022-11-18T08:15:08;77156.91;;;-3.47;100.00
13954;BME280;7049;49.444;8.522;2022-11-18T08:20:11;77156.91;;;-3.47;100.00
13954;BME280;7049;49.444;8.522;2022-11-18T08:25:13;77152.72;;;-3.47;100.00
13954;BME280;7049;49.444;8.522;2022-11-18T08:30:16;77161.09;;;-3.47;100.00
13954;BME280;7049;49.444;8.522;2022-11-18T08:35:20;77169.47;;;-3.47;100.00
13954;BME280;7049;49.444;8.522;2022-11-18T08:40:21;77167.38;;;-3.47;100.00
13954;BME280;7049;49.444;8.522;2022-11-18T08:45:23;77167.38;;;-3.47;100.00
13954;BME280;7049;49.444;8.522;2022-11-18T08:50:26;77171.56;;;-3.47;100.00
13954;BME280;7049;49.444;8.522;2022-11-18T08:55:27;77165.28;;;-3.47;100.00
13954;BME280;7049;49.444;8.522;2022-11-18T09:00:29;77169.47;;;-3.47;100.00
13954;BME280;7049;49.444;8.522;2022-11-18T09:05:31;77169.47;;;-3.47;100.00
13954;BME280;7049;49.444;8.522;2022-11-18T09:10:33;77175.75;;;-3.47;100.00
13954;BME280;7049;49.444;8.522;2022-11-18T09:15:34;77173.66;;;-3.47;100.00
13954;BME280;7049;49.444;8.522;2022-11-18T09:20:37;77169.47;;;-3.47;100.00
13954;BME280;7049;49.444;8.522;2022-11-18T09:25:39;77165.28;;;-3.47;100.00
13954;BME280;7049;49.444;8.522;2022-11-18T09:30:40;77152.72;;;-3.47;100.00
13954;BME280;7049;49.444;8.522;2022-11-18T09:35:44;77152.72;;;-3.47;100.00
13954;BME280;7049;49.444;8.522;2022-11-18T09:40:55;77144.38;;;-3.47;100.00
13954;BME280;7049;49.444;8.522;2022-11-18T09:46:02;77136.00;;;-3.47;100.00
13954;BME280;7049;49.444;8.522;2022-11-18T09:51:10;77133.91;;;-3.47;100.00
13954;BME280;7049;49.444;8.522;2022-11-18T09:56:14;77140.19;;;-3.47;100.00
13954;BME280;7049;49.444;8.522;2022-11-18T10:01:18;77133.91;;;-3.47;100.00
13954;BME280;7049;49.444;8.522;2022-11-18T10:06:23;77131.81;;;-3.47;100.00
13954;BME280;7049;49.444;8.522;2022-11-18T10:11:32;77121.34;;;-3.47;100.00
13954;BME280;7049;49.444;8.522;2022-11-18T10:16:41;77106.72;;;-3.47;100.00
13954;BME280;7049;49.444;8.522;2022-11-18T10:21:51;77108.78;;;-3.47;100.00
13954;BME280;7049;49.444;8.522;2022-11-18T10:26:58;77100.44;;;-3.47;100.00
13954;BME280;7049;49.444;8.522;2022-11-18T10:32:03;77098.34;;;-3.47;100.00
13954;BME280;7049;49.444;8.522;2022-11-18T10:37:21;77092.06;;;-3.47;100.00
13954;BME280;7049;49.444;8.522;2022-11-18T10:42:26;77083.69;;;-3.47;100.00
13954;BME280;7049;49.444;8.522;2022-11-18T10:47:30;77081.59;;;-3.47;100.00
13954;BME280;7049;49.444;8.522;2022-11-18T10:52:51;77081.59;;;-3.47;100.00
13954;BME280;7049;49.444;8.522;2022-11-18T10:57:59;77073.22;;;-3.47;100.00
13954;BME280;7049;49.444;8.522;2022-11-18T11:03:14;77069.06;;;-3.47;100.00
13954;BME280;7049;49.444;8.522;2022-11-18T11:08:22;77062.78;;;-3.47;100.00
13954;BME280;7049;49.444;8.522;2022-11-18T11:13:27;77064.88;;;-3.47;100.00
13954;BME280;7049;49.444;8.522;2022-11-18T11:18:33;77069.06;;;-3.47;100.00
13954;BME280;7049;49.444;8.522;2022-11-18T11:23:44;77069.06;;;-3.47;100.00
13954;BME280;7049;49.444;8.522;2022-11-18T11:28:50;77060.69;;;-3.47;100.00
13954;BME280;7049;49.444;8.522;2022-11-18T11:33:56;77056.50;;;-3.47;100.00
13954;BME280;7049;49.444;8.522;2022-11-18T11:39:17;77052.31;;;-3.47;100.00
13954;BME280;7049;49.444;8.522;2022-11-18T11:44:34;77050.22;;;-3.47;100.00
13954;BME280;7049;49.444;8.522;2022-11-18T11:49:51;77048.13;;;-3.47;100.00
13954;BME280;7049;49.444;8.522;2022-11-18T11:54:59;77043.94;;;-3.47;100.00
13954;BME280;7049;49.444;8.522;2022-11-18T12:00:03;77031.41;;;-3.47;100.00
13954;BME280;7049;49.444;8.522;2022-11-18T12:05:15;77035.56;;;-3.47;100.00
13954;BME280;7049;49.444;8.522;2022-11-18T12:10:25;77031.41;;;-3.47;100.00
13954;BME280;7049;49.444;8.522;2022-11-18T12:15:39;77025.13;;;-3.47;99.39
13954;BME280;7049;49.444;8.522;2022-11-18T12:20:44;77018.84;;;-3.47;96.77
13954;BME280;7049;49.444;8.522;2022-11-18T12:26:03;77018.84;;;-3.47;97.37
13954;BME280;7049;49.444;8.522;2022-11-18T12:31:25;76997.91;;;-3.47;95.17
13954;BME280;7049;49.444;8.522;2022-11-18T12:36:29;76995.84;;;-3.47;95.01
13954;BME280;7049;49.444;8.522;2022-11-18T12:41:53;76987.47;;;-3.47;92.82
13954;BME280;7049;49.444;8.522;2022-11-18T12:47:13;76993.75;;;-3.47;93.32
13954;BME280;7049;49.444;8.522;2022-11-18T12:52:52;76981.19;;;-3.47;91.13
13954;BME280;7049;49.444;8.522;2022-11-18T12:57:55;76987.47;;;-3.47;88.96
13954;BME280;7049;49.444;8.522;2022-11-18T13:02:58;76987.47;;;-3.47;85.63
13954;BME280;7049;49.444;8.522;2022-11-18T13:08:03;76995.84;;;-3.47;87.58
13954;BME280;7049;49.444;8.522;2022-11-18T13:13:24;76997.91;;;-3.47;85.76
13954;BME280;7049;49.444;8.522;2022-11-18T13:18:26;77002.09;;;-3.47;86.30
13954;BME280;7049;49.444;8.522;2022-11-18T13:23:30;76993.75;;;-3.47;85.41
13954;BME280;7049;49.444;8.522;2022-11-18T13:29:14;76985.38;;;-3.47;89.00
13954;BME280;7049;49.444;8.522;2022-11-18T13:34:19;76958.16;;;-3.47;85.73
13954;BME280;7049;49.444;8.522;2022-11-18T13:39:22;76956.09;;;-3.47;85.02
13954;BME280;7049;49.444;8.522;2022-11-18T13:44:27;76960.25;;;-3.47;83.36
13954;BME280;7049;49.444;8.522;2022-11-18T13:49:39;76964.44;;;-3.47;85.43
13954;BME280;7049;49.444;8.522;2022-11-18T13:54:41;76974.91;;;-3.47;86.78
13954;BME280;7049;49.444;8.522;2022-11-18T13:59:45;76972.81;;;-3.47;88.45
13954;BME280;7049;49.444;8.522;2022-11-18T14:04:52;76977.00;;;-3.47;88.79
13954;BME280;7049;49.444;8.522;2022-11-18T14:09:55;76981.19;;;-3.47;89.10
13954;BME280;7049;49.444;8.522;2022-11-18T14:15:20;76979.09;;;-3.47;84.87
13954;BME280;7049;49.444;8.522;2022-11-18T14:20:22;76960.25;;;-3.47;86.46
13954;BME280;7049;49.444;8.522;2022-11-18T14:25:27;76949.81;;;-3.47;83.28
13954;BME280;7049;49.444;8.522;2022-11-18T14:30:34;76933.06;;;-3.47;81.20
13954;BME280;7049;49.444;8.522;2022-11-18T14:35:36;76941.44;;;-3.47;81.02
13954;BME280;7049;49.444;8.522;2022-11-18T14:40:38;76947.72;;;-3.47;81.92
13954;BME280;7049;49.444;8.522;2022-11-18T14:45:41;76964.44;;;-3.47;82.95
13954;BME280;7049;49.444;8.522;2022-11-18T14:50:42;76983.28;;;-3.47;82.31
13954;BME280;7049;49.444;8.522;2022-11-18T14:55:44;76997.91;;;-3.47;80.66
13954;BME280;7049;49.444;8.522;2022-11-18T15:00:49;77014.66;;;-3.47;80.65
13954;BME280;7049;49.444;8.522;2022-11-18T15:05:50;77016.75;;;-3.47;80.67
13954;BME280;7049;49.444;8.522;2022-11-18T15:10:52;77039.75;;;-3.47;81.97
13954;BME280;7049;49.444;8.522;2022-11-18T15:15:55;77052.31;;;-3.47;81.58
13954;BME280;7049;49.444;8.522;2022-11-18T15:20:56;77060.69;;;-3.47;80.37
13954;BME280;7049;49.444;8.522;2022-11-18T15:25:57;77081.59;;;-3.47;80.89
13954;BME280;7049;49.444;8.522;2022-11-18T15:31:00;77106.72;;;-3.47;81.67
13954;BME280;7049;49.444;8.522;2022-11-18T15:36:02;77119.25;;;-3.47;82.37
13954;BME280;7049;49.444;8.522;2022-11-18T15:41:03;77129.72;;;-3.47;83.78
13954;BME280;7049;49.444;8.522;2022-11-18T15:46:07;77144.38;;;-3.47;84.12
13954;BME280;7049;49.444;8.522;2022-11-18T15:51:09;77156.91;;;-3.47;84.53
13954;BME280;7049;49.444;8.522;2022-11-18T15:56:26;77156.91;;;-3.47;85.02
13954;BME280;7049;49.444;8.522;2022-11-18T16:01:30;77161.09;;;-3.47;84.77
13954;BME280;7049;49.444;8.522;2022-11-18T16:06:33;77161.09;;;-3.47;83.65
13954;BME280;7049;49.444;8.522;2022-11-18T16:11:35;77165.28;;;-3.47;84.02
13954;BME280;7049;49.444;8.522;2022-11-18T16:16:55;77169.47;;;-3.47;84.80
13954;BME280;7049;49.444;8.522;2022-11-18T16:21:57;77177.84;;;-3.47;84.97
13954;BME280;7049;49.444;8.522;2022-11-18T16:26:58;77177.84;;;-3.47;84.88
13954;BME280;7049;49.444;8.522;2022-11-18T16:32:01;77182.03;;;-3.47;85.62
13954;BME280;7049;49.444;8.522;2022-11-18T16:37:02;77190.38;;;-3.47;85.28
13954;BME280;7049;49.444;8.522;2022-11-18T16:42:05;77194.56;;;-3.47;86.46
13954;BME280;7049;49.444;8.522;2022-11-18T16:47:08;77194.56;;;-3.47;85.73
13954;BME280;7049;49.444;8.522;2022-11-18T16:52:09;77194.56;;;-3.47;86.53
13954;BME280;7049;49.444;8.522;2022-11-18T16:57:12;77207.13;;;-3.47;86.33
13954;BME280;7049;49.444;8.522;2022-11-18T17:02:15;77219.69;;;-3.47;87.72
13954;BME280;7049;49.444;8.522;2022-11-18T17:07:19;77221.78;;;-3.47;87.27
13954;BME280;7049;49.444;8.522;2022-11-18T17:12:21;77236.41;;;-3.47;87.67
13954;BME280;7049;49.444;8.522;2022-11-18T17:17:24;77242.69;;;-3.47;87.93
13954;BME280;7049;49.444;8.522;2022-11-18T17:22:25;77251.06;;;-3.47;88.25
13954;BME280;7049;49.444;8.522;2022-11-18T17:27:27;77257.34;;;-3.47;88.58
13954;BME280;7049;49.444;8.522;2022-11-18T17:32:30;77253.16;;;-3.47;88.41
13954;BME280;7049;49.444;8.522;2022-11-18T17:37:32;77263.63;;;-3.47;89.06
13954;BME280;7049;49.444;8.522;2022-11-18T17:42:33;77265.69;;;-3.47;88.82
13954;BME280;7049;49.444;8.522;2022-11-18T17:47:36;77276.16;;;-3.47;88.59
13954;BME280;7049;49.444;8.522;2022-11-18T17:52:38;77286.63;;;-3.47;89.20
13954;BME280;7049;49.444;8.522;2022-11-18T17:57:39;77301.28;;;-3.47;89.92
13954;BME280;7049;49.444;8.522;2022-11-18T18:02:42;77307.53;;;-3.47;91.11
13954;BME280;7049;49.444;8.522;2022-11-18T18:07:43;77313.81;;;-3.47;91.74
13954;BME280;7049;49.444;8.522;2022-11-18T18:12:47;77318.00;;;-3.47;92.76
13954;BME280;7049;49.444;8.522;2022-11-18T18:18:07;77324.28;;;-3.47;93.19
13954;BME280;7049;49.444;8.522;2022-11-18T18:23:09;77330.56;;;-3.47;93.58
13954;BME280;7049;49.444;8.522;2022-11-18T18:28:10;77341.03;;;-3.47;93.92
13954;BME280;7049;49.444;8.522;2022-11-18T18:33:13;77343.13;;;-3.47;94.57
13954;BME280;7049;49.444;8.522;2022-11-18T18:38:15;77349.38;;;-3.47;92.72
13954;BME280;7049;49.444;8.522;2022-11-18T18:43:16;77353.56;;;-3.47;92.63
13954;BME280;7049;49.444;8.522;2022-11-18T18:48:19;77357.75;;;-3.47;92.96
13954;BME280;7049;49.444;8.522;2022-11-18T18:53:20;77366.13;;;-3.47;93.16
13954;BME280;7049;49.444;8.522;2022-11-18T18:58:22;77361.94;;;-3.47;93.44
13954;BME280;7049;49.444;8.522;2022-11-18T19:03:25;77370.31;;;-3.47;94.24
13954;BME280;7049;49.444;8.522;2022-11-18T19:08:26;77361.94;;;-3.47;94.42
13954;BME280;7049;49.444;8.522;2022-11-18T19:13:28;77370.31;;;-3.47;94.37
13954;BME280;7049;49.444;8.522;2022-11-18T19:18:33;77366.13;;;-3.47;94.95
13954;BME280;7049;49.444;8.522;2022-11-18T19:23:35;77368.22;;;-3.47;95.79
13954;BME280;7049;49.444;8.522;2022-11-18T19:28:36;77370.31;;;-3.47;96.48
13954;BME280;7049;49.444;8.522;2022-11-18T19:33:40;77393.31;;;-3.47;97.30
13954;BME280;7049;49.444;8.522;2022-11-18T19:38:42;77399.59;;;-3.47;97.96
13954;BME280;7049;49.444;8.522;2022-11-18T19:43:44;77393.31;;;-3.47;98.22
13954;BME280;7049;49.444;8.522;2022-11-18T19:48:47;77395.41;;;-3.47;97.67
13954;BME280;7049;49.444;8.522;2022-11-18T19:53:50;77407.97;;;-3.47;98.12
13954;BME280;7049;49.444;8.522;2022-11-18T19:58:52;77416.34;;;-3.47;98.92
13954;BME280;7049;49.444;8.522;2022-11-18T20:03:57;77420.53;;;-3.47;98.49
13954;BME280;7049;49.444;8.522;2022-11-18T20:09:01;77424.72;;;-3.47;98.25
13954;BME280;7049;49.444;8.522;2022-11-18T20:14:02;77414.25;;;-3.47;99.17
13954;BME280;7049;49.444;8.522;2022-11-18T20:19:05;77416.34;;;-3.47;99.42
13954;BME280;7049;49.444;8.522;2022-11-18T20:24:14;77424.72;;;-3.47;99.91
13954;BME280;7049;49.444;8.522;2022-11-18T20:29:16;77424.72;;;-3.47;100.00
13954;BME280;7049;49.444;8.522;2022-11-18T20:34:19;77431.00;;;-3.47;100.00
13954;BME280;7049;49.444;8.522;2022-11-18T20:39:21;77435.16;;;-3.47;100.00
13954;BME280;7049;49.444;8.522;2022-11-18T20:44:22;77435.16;;;-3.47;100.00
13954;BME280;7049;49.444;8.522;2022-11-18T20:49:25;77435.16;;;-3.47;100.00
13954;BME280;7049;49.444;8.522;2022-11-18T20:54:27;77435.16;;;-3.47;100.00
13954;BME280;7049;49.444;8.522;2022-11-18T20:59:28;77441.44;;;-3.47;100.00
13954;BME280;7049;49.444;8.522;2022-11-18T21:04:31;77449.81;;;-3.47;100.00
13954;BME280;7049;49.444;8.522;2022-11-18T21:09:33;77441.44;;;-3.47;100.00
13954;BME280;7049;49.444;8.522;2022-11-18T21:14:35;77454.00;;;-3.47;100.00
13954;BME280;7049;49.444;8.522;2022-11-18T21:19:38;77447.72;;;-3.47;100.00
13954;BME280;7049;49.444;8.522;2022-11-18T21:24:39;77447.72;;;-3.47;100.00
13954;BME280;7049;49.444;8.522;2022-11-18T21:29:41;77443.53;;;-3.47;100.00
13954;BME280;7049;49.444;8.522;2022-11-18T21:34:46;77439.34;;;-3.47;100.00
13954;BME280;7049;49.444;8.522;2022-11-18T21:39:48;77437.25;;;-3.47;100.00
13954;BME280;7049;49.444;8.522;2022-11-18T21:44:49;77433.06;;;-3.47;100.00
13954;BME280;7049;49.444;8.522;2022-11-18T21:49:52;77447.72;;;-3.47;100.00
13954;BME280;7049;49.444;8.522;2022-11-18T21:54:54;77449.81;;;-3.47;100.00
13954;BME280;7049;49.444;8.522;2022-11-18T21:59:56;77449.81;;;-3.47;100.00
13954;BME280;7049;49.444;8.522;2022-11-18T22:04:58;77458.19;;;-3.47;100.00
13954;BME280;7049;49.444;8.522;2022-11-18T22:10:06;77454.00;;;-3.47;100.00
13954;BME280;7049;49.444;8.522;2022-11-18T22:15:08;77462.38;;;-3.47;100.00
13954;BME280;7049;49.444;8.522;2022-11-18T22:20:12;77462.38;;;-3.47;100.00
13954;BME280;7049;49.444;8.522;2022-11-18T22:25:13;77464.47;;;-3.47;100.00
13954;BME280;7049;49.444;8.522;2022-11-18T22:30:15;77466.56;;;-3.47;100.00
13954;BME280;7049;49.444;8.522;2022-11-18T22:35:18;77479.09;;;-3.47;100.00
13954;BME280;7049;49.444;8.522;2022-11-18T22:40:20;77474.94;;;-3.47;100.00
13954;BME280;7049;49.444;8.522;2022-11-18T22:45:21;77479.09;;;-3.47;100.00
13954;BME280;7049;49.444;8.522;2022-11-18T22:50:24;77485.38;;;-3.47;100.00
13954;BME280;7049;49.444;8.522;2022-11-18T22:55:26;77483.28;;;-3.47;100.00
13954;BME280;7049;49.444;8.522;2022-11-18T23:00:27;77495.84;;;-3.47;100.00
13954;BME280;7049;49.444;8.522;2022-11-18T23:05:30;77487.47;;;-3.47;100.00
13954;BME280;7049;49.444;8.522;2022-11-18T23:10:32;77483.28;;;-3.47;100.00
13954;BME280;7049;49.444;8.522;2022-11-18T23:15:33;77487.47;;;-3.47;100.00
13954;BME280;7049;49.444;8.522;2022-11-18T23:20:36;77489.56;;;-3.47;100.00
13954;BME280;7049;49.444;8.522;2022-11-18T23:25:37;77497.94;;;-3.47;100.00
13954;BME280;7049;49.444;8.522;2022-11-18T23:30:39;77502.13;;;-3.47;100.00
13954;BME280;7049;49.444;8.522;2022-11-18T23:35:42;77493.75;;;-3.47;100.00
13954;BME280;7049;49.444;8.522;2022-11-18T23:40:43;77493.75;;;-3.47;100.00
13954;BME280;7049;49.444;8.522;2022-11-18T23:45:45;77502.13;;;-3.47;100.00
13954;BME280;7049;49.444;8.522;2022-11-18T23:50:53;77497.94;;;-3.47;100.00
13954;BME280;7049;49.444;8.522;2022-11-18T23:55:55;77502.13;;;-3.47;100.00
